sensor_id;sensor_type;location;lat;lon;timestamp;pressure;altitude;pressure_sealevel;temperature;humidity
78990;BME280;68390;52.130;21.218;2023-03-31T00:01:35;99405.06;;;8.76;88.13
78990;BME280;68390;52.130;21.218;2023-03-31T00:04:06;99411.03;;;8.79;87.44
78990;BME280;68390;52.130;21.218;2023-03-31T00:06:36;99400.09;;;8.79;87.43
78990;BME280;68390;52.130;21.218;2023-03-31T00:09:13;99400.09;;;8.79;87.45
78990;BME280;68390;52.130;21.218;2023-03-31T00:11:43;99392.56;;;8.81;87.37
78990;BME280;68390;52.130;21.218;2023-03-31T00:14:09;99395.94;;;8.83;87.88
78990;BME280;68390;52.130;21.218;2023-03-31T00:16:36;99393.00;;;8.85;87.47
78990;BME280;68390;52.130;21.218;2023-03-31T00:19:02;99393.88;;;8.86;87.93
78990;BME280;68390;52.130;21.218;2023-03-31T00:21:28;99397.28;;;8.88;87.22
78990;BME280;68390;52.130;21.218;2023-03-31T00:24:03;99390.94;;;8.87;87.78
78990;BME280;68390;52.130;21.218;2023-03-31T00:26:29;99385.47;;;8.87;87.77
78990;BME280;68390;52.130;21.218;2023-03-31T00:28:56;99396.41;;;8.87;87.52
78990;BME280;68390;52.130;21.218;2023-03-31T00:31:22;99395.22;;;8.90;86.75
78990;BME280;68390;52.130;21.218;2023-03-31T00:33:48;99399.84;;;8.89;87.60
78990;BME280;68390;52.130;21.218;2023-03-31T00:36:13;99405.31;;;8.89;87.41
78990;BME280;68390;52.130;21.218;2023-03-31T00:38:48;99405.31;;;8.89;87.01
78990;BME280;68390;52.130;21.218;2023-03-31T00:41:14;99405.13;;;8.91;86.61
78990;BME280;68390;52.130;21.218;2023-03-31T00:43:39;99406.63;;;8.93;87.38
78990;BME280;68390;52.130;21.218;2023-03-31T00:46:17;99410.22;;;8.94;87.12
78990;BME280;68390;52.130;21.218;2023-03-31T00:48:52;99408.16;;;8.96;86.62
78990;BME280;68390;52.130;21.218;2023-03-31T00:51:23;99408.81;;;8.98;86.60
78990;BME280;68390;52.130;21.218;2023-03-31T00:53:53;99405.91;;;8.99;86.04
78990;BME280;68390;52.130;21.218;2023-03-31T00:56:22;99403.84;;;9.01;86.32
78990;BME280;68390;52.130;21.218;2023-03-31T00:58:48;99403.00;;;9.01;86.13
78990;BME280;68390;52.130;21.218;2023-03-31T01:01:19;99401.94;;;9.02;86.37
78990;BME280;68390;52.130;21.218;2023-03-31T01:03:48;99400.06;;;9.02;86.00
78990;BME280;68390;52.130;21.218;2023-03-31T01:06:15;99400.91;;;9.03;85.98
78990;BME280;68390;52.130;21.218;2023-03-31T01:08:45;99397.31;;;9.02;86.11
78990;BME280;68390;52.130;21.218;2023-03-31T01:11:13;99396.66;;;9.00;86.64
78990;BME280;68390;52.130;21.218;2023-03-31T01:13:41;99392.03;;;9.01;85.71
78990;BME280;68390;52.130;21.218;2023-03-31T01:16:08;99386.56;;;9.01;85.62
78990;BME280;68390;52.130;21.218;2023-03-31T01:18:34;99389.28;;;9.01;86.03
78990;BME280;68390;52.130;21.218;2023-03-31T01:27:11;99383.44;;;9.04;85.28
78990;BME280;68390;52.130;21.218;2023-03-31T01:43:25;99380.31;;;9.07;85.32
78990;BME280;68390;52.130;21.218;2023-03-31T01:53:49;99385.81;;;9.07;85.39
78990;BME280;68390;52.130;21.218;2023-03-31T01:56:30;99392.97;;;9.08;84.96
78990;BME280;68390;52.130;21.218;2023-03-31T01:59:02;99389.41;;;9.07;84.17
78990;BME280;68390;52.130;21.218;2023-03-31T02:01:33;99389.22;;;9.09;84.42
78990;BME280;68390;52.130;21.218;2023-03-31T02:04:26;99389.22;;;9.09;84.17
78990;BME280;68390;52.130;21.218;2023-03-31T02:06:58;99385.63;;;9.08;84.19
78990;BME280;68390;52.130;21.218;2023-03-31T02:09:31;99393.84;;;9.08;84.17
78990;BME280;68390;52.130;21.218;2023-03-31T02:11:58;99398.94;;;9.11;84.43
78990;BME280;68390;52.130;21.218;2023-03-31T02:14:28;99393.66;;;9.10;84.44
78990;BME280;68390;52.130;21.218;2023-03-31T02:16:56;99398.94;;;9.11;83.94
78990;BME280;68390;52.130;21.218;2023-03-31T02:19:33;99394.69;;;9.09;83.31
78990;BME280;68390;52.130;21.218;2023-03-31T02:22:01;99391.94;;;9.09;83.81
78990;BME280;68390;52.130;21.218;2023-03-31T02:24:29;99398.47;;;9.08;84.28
78990;BME280;68390;52.130;21.218;2023-03-31T02:27:17;99392.13;;;9.07;83.73
78990;BME280;68390;52.130;21.218;2023-03-31T02:29:43;99399.50;;;9.07;83.14
78990;BME280;68390;52.130;21.218;2023-03-31T02:32:22;99390.59;;;9.05;83.71
78990;BME280;68390;52.130;21.218;2023-03-31T02:34:49;99382.38;;;9.05;83.33
78990;BME280;68390;52.130;21.218;2023-03-31T02:37:15;99390.78;;;9.03;82.90
78990;BME280;68390;52.130;21.218;2023-03-31T02:39:42;99391.63;;;9.04;83.49
78990;BME280;68390;52.130;21.218;2023-03-31T02:42:09;99383.44;;;9.04;83.42
78990;BME280;68390;52.130;21.218;2023-03-31T02:44:36;99388.91;;;9.04;82.92
78990;BME280;68390;52.130;21.218;2023-03-31T02:47:03;99392.03;;;9.01;83.11
78990;BME280;68390;52.130;21.218;2023-03-31T02:49:31;99385.53;;;9.02;82.17
78990;BME280;68390;52.130;21.218;2023-03-31T02:58:19;99391.00;;;9.02;82.19
78990;BME280;68390;52.130;21.218;2023-03-31T03:01:13;99390.34;;;9.00;82.16
78990;BME280;68390;52.130;21.218;2023-03-31T03:03:56;99385.88;;;8.99;82.28
78990;BME280;68390;52.130;21.218;2023-03-31T03:06:46;99382.28;;;8.98;82.63
78990;BME280;68390;52.130;21.218;2023-03-31T03:12:16;99387.28;;;8.95;82.18
78990;BME280;68390;52.130;21.218;2023-03-31T03:17:26;99396.59;;;8.86;82.14
78990;BME280;68390;52.130;21.218;2023-03-31T03:19:56;99405.56;;;8.79;82.36
78990;BME280;68390;52.130;21.218;2023-03-31T03:22:23;99405.06;;;8.76;82.28
78990;BME280;68390;52.130;21.218;2023-03-31T03:24:49;99412.78;;;8.72;82.85
78990;BME280;68390;52.130;21.218;2023-03-31T03:27:15;99413.84;;;8.71;82.56
78990;BME280;68390;52.130;21.218;2023-03-31T03:29:41;99415.53;;;8.72;82.60
78990;BME280;68390;52.130;21.218;2023-03-31T03:32:08;99419.31;;;8.71;82.44
78990;BME280;68390;52.130;21.218;2023-03-31T03:34:33;99421.00;;;8.72;82.99
78990;BME280;68390;52.130;21.218;2023-03-31T03:36:59;99424.41;;;8.74;82.29
78990;BME280;68390;52.130;21.218;2023-03-31T03:39:24;99418.75;;;8.76;82.37
78990;BME280;68390;52.130;21.218;2023-03-31T03:41:49;99431.41;;;8.77;82.49
78990;BME280;68390;52.130;21.218;2023-03-31T03:44:15;99430.56;;;8.76;82.51
78990;BME280;68390;52.130;21.218;2023-03-31T03:46:41;99421.50;;;8.76;82.59
78990;BME280;68390;52.130;21.218;2023-03-31T03:49:06;99424.06;;;8.77;82.89
78990;BME280;68390;52.130;21.218;2023-03-31T03:51:31;99429.53;;;8.77;82.89
78990;BME280;68390;52.130;21.218;2023-03-31T03:53:57;99433.13;;;8.78;82.50
78990;BME280;68390;52.130;21.218;2023-03-31T03:56:23;99432.44;;;8.76;82.53
78990;BME280;68390;52.130;21.218;2023-03-31T03:58:48;99433.28;;;8.76;82.20
78990;BME280;68390;52.130;21.218;2023-03-31T04:01:13;99436.88;;;8.77;82.72
78990;BME280;68390;52.130;21.218;2023-03-31T04:03:39;99436.22;;;8.75;82.09
78990;BME280;68390;52.130;21.218;2023-03-31T04:06:04;99433.66;;;8.73;82.08
78990;BME280;68390;52.130;21.218;2023-03-31T04:08:30;99440.16;;;8.72;82.32
78990;BME280;68390;52.130;21.218;2023-03-31T04:10:56;99441.22;;;8.71;82.29
78990;BME280;68390;52.130;21.218;2023-03-31T04:13:21;99438.34;;;8.65;81.78
78990;BME280;68390;52.130;21.218;2023-03-31T04:15:46;99442.66;;;8.59;81.41
78990;BME280;68390;52.130;21.218;2023-03-31T04:18:12;99439.13;;;8.51;81.94
78990;BME280;68390;52.130;21.218;2023-03-31T04:20:50;99449.06;;;8.43;81.84
78990;BME280;68390;52.130;21.218;2023-03-31T04:23:28;99443.81;;;8.34;82.52
78990;BME280;68390;52.130;21.218;2023-03-31T04:25:54;99438.19;;;8.27;81.46
78990;BME280;68390;52.130;21.218;2023-03-31T04:28:19;99445.59;;;8.19;82.48
78990;BME280;68390;52.130;21.218;2023-03-31T04:30:45;99442.03;;;8.10;82.76
78990;BME280;68390;52.130;21.218;2023-03-31T04:33:10;99444.47;;;8.05;82.21
78990;BME280;68390;52.130;21.218;2023-03-31T04:35:39;99441.59;;;7.98;82.58
78990;BME280;68390;52.130;21.218;2023-03-31T04:38:19;99434.09;;;7.92;82.54
78990;BME280;68390;52.130;21.218;2023-03-31T04:40:49;99432.25;;;7.85;82.22
78990;BME280;68390;52.130;21.218;2023-03-31T04:43:16;99430.41;;;7.77;82.95
78990;BME280;68390;52.130;21.218;2023-03-31T04:45:42;99431.78;;;7.73;83.12
78990;BME280;68390;52.130;21.218;2023-03-31T04:48:08;99441.00;;;7.72;83.25
78990;BME280;68390;52.130;21.218;2023-03-31T04:50:33;99433.34;;;7.67;83.70
78990;BME280;68390;52.130;21.218;2023-03-31T04:52:59;99434.53;;;7.65;84.01
78990;BME280;68390;52.130;21.218;2023-03-31T04:55:25;99431.81;;;7.65;83.60
78990;BME280;68390;52.130;21.218;2023-03-31T04:57:51;99419.16;;;7.64;83.88
78990;BME280;68390;52.130;21.218;2023-03-31T05:00:17;99417.81;;;7.60;83.37
78990;BME280;68390;52.130;21.218;2023-03-31T05:02:43;99429.09;;;7.57;83.69
78990;BME280;68390;52.130;21.218;2023-03-31T05:05:09;99421.94;;;7.56;83.47
78990;BME280;68390;52.130;21.218;2023-03-31T05:07:35;99421.06;;;7.55;83.80
78990;BME280;68390;52.130;21.218;2023-03-31T05:10:00;99422.94;;;7.55;84.05
78990;BME280;68390;52.130;21.218;2023-03-31T05:12:26;99421.94;;;7.56;84.04
78990;BME280;68390;52.130;21.218;2023-03-31T05:14:51;99418.81;;;7.59;84.51
78990;BME280;68390;52.130;21.218;2023-03-31T05:17:17;99419.50;;;7.61;83.70
78990;BME280;68390;52.130;21.218;2023-03-31T05:19:43;99422.59;;;7.66;84.14
78990;BME280;68390;52.130;21.218;2023-03-31T05:22:08;99422.88;;;7.71;84.52
78990;BME280;68390;52.130;21.218;2023-03-31T05:24:33;99433.94;;;7.86;85.44
78990;BME280;68390;52.130;21.218;2023-03-31T05:26:59;99431.69;;;7.97;86.75
78990;BME280;68390;52.130;21.218;2023-03-31T05:29:24;99431.47;;;8.07;85.64
78990;BME280;68390;52.130;21.218;2023-03-31T05:31:50;99425.44;;;8.20;85.72
78990;BME280;68390;52.130;21.218;2023-03-31T05:34:17;99409.66;;;8.30;85.49
78990;BME280;68390;52.130;21.218;2023-03-31T05:36:42;99415.78;;;8.40;85.05
78990;BME280;68390;52.130;21.218;2023-03-31T05:39:08;99411.28;;;8.47;84.60
78990;BME280;68390;52.130;21.218;2023-03-31T05:41:34;99415.81;;;8.55;84.23
78990;BME280;68390;52.130;21.218;2023-03-31T05:44:00;99412.84;;;8.64;84.17
78990;BME280;68390;52.130;21.218;2023-03-31T05:46:26;99407.69;;;8.69;84.11
78990;BME280;68390;52.130;21.218;2023-03-31T05:48:52;99413.28;;;8.76;84.27
78990;BME280;68390;52.130;21.218;2023-03-31T05:51:17;99408.97;;;8.81;83.70
78990;BME280;68390;52.130;21.218;2023-03-31T05:53:42;99413.69;;;8.88;83.40
78990;BME280;68390;52.130;21.218;2023-03-31T05:56:09;99402.00;;;8.94;82.71
78990;BME280;68390;52.130;21.218;2023-03-31T05:58:35;99410.53;;;8.99;83.31
78990;BME280;68390;52.130;21.218;2023-03-31T06:01:09;99407.22;;;9.03;83.13
78990;BME280;68390;52.130;21.218;2023-03-31T06:03:36;99414.53;;;9.11;82.42
78990;BME280;68390;52.130;21.218;2023-03-31T06:06:03;99404.88;;;9.15;82.68
78990;BME280;68390;52.130;21.218;2023-03-31T06:08:33;99406.22;;;9.19;82.85
78990;BME280;68390;52.130;21.218;2023-03-31T06:11:02;99405.69;;;9.24;81.77
78990;BME280;68390;52.130;21.218;2023-03-31T06:13:28;99395.84;;;9.29;81.78
78990;BME280;68390;52.130;21.218;2023-03-31T06:15:55;99397.19;;;9.33;81.49
78990;BME280;68390;52.130;21.218;2023-03-31T06:18:20;99394.72;;;9.38;80.72
78990;BME280;68390;52.130;21.218;2023-03-31T06:20:46;99400.53;;;9.43;81.48
78990;BME280;68390;52.130;21.218;2023-03-31T06:23:11;99407.31;;;9.47;81.03
78990;BME280;68390;52.130;21.218;2023-03-31T06:25:37;99401.28;;;9.52;81.05
78990;BME280;68390;52.130;21.218;2023-03-31T06:28:03;99403.06;;;9.60;80.80
78990;BME280;68390;52.130;21.218;2023-03-31T06:30:30;99396.81;;;9.66;80.23
78990;BME280;68390;52.130;21.218;2023-03-31T06:32:55;99402.78;;;9.69;80.51
78990;BME280;68390;52.130;21.218;2023-03-31T06:35:21;99397.41;;;9.76;80.27
78990;BME280;68390;52.130;21.218;2023-03-31T06:37:46;99393.72;;;9.83;80.08
78990;BME280;68390;52.130;21.218;2023-03-31T06:40:12;99393.78;;;9.90;79.48
78990;BME280;68390;52.130;21.218;2023-03-31T06:42:37;99400.97;;;9.91;78.92
78990;BME280;68390;52.130;21.218;2023-03-31T06:45:03;99403.16;;;9.96;79.44
78990;BME280;68390;52.130;21.218;2023-03-31T06:47:28;99392.94;;;10.04;78.99
78990;BME280;68390;52.130;21.218;2023-03-31T06:49:53;99397.06;;;10.15;78.21
78990;BME280;68390;52.130;21.218;2023-03-31T06:52:19;99394.31;;;10.29;78.99
78990;BME280;68390;52.130;21.218;2023-03-31T06:54:44;99405.06;;;10.46;78.86
78990;BME280;68390;52.130;21.218;2023-03-31T06:57:10;99394.22;;;10.59;78.92
78990;BME280;68390;52.130;21.218;2023-03-31T06:59:35;99393.50;;;10.72;78.05
78990;BME280;68390;52.130;21.218;2023-03-31T07:02:01;99383.88;;;10.82;77.60
78990;BME280;68390;52.130;21.218;2023-03-31T07:04:26;99389.47;;;10.89;77.16
78990;BME280;68390;52.130;21.218;2023-03-31T07:06:52;99394.16;;;10.95;76.06
78990;BME280;68390;52.130;21.218;2023-03-31T07:09:17;99387.81;;;10.94;75.54
78990;BME280;68390;52.130;21.218;2023-03-31T07:11:42;99395.06;;;11.02;75.63
78990;BME280;68390;52.130;21.218;2023-03-31T07:14:08;99396.00;;;11.09;76.43
78990;BME280;68390;52.130;21.218;2023-03-31T07:16:34;99397.06;;;11.15;75.85
78990;BME280;68390;52.130;21.218;2023-03-31T07:19:00;99393.78;;;11.26;75.40
78990;BME280;68390;52.130;21.218;2023-03-31T07:21:27;99401.66;;;11.29;74.15
78990;BME280;68390;52.130;21.218;2023-03-31T07:23:53;99401.88;;;11.34;74.20
78990;BME280;68390;52.130;21.218;2023-03-31T07:26:18;99405.09;;;11.37;73.91
78990;BME280;68390;52.130;21.218;2023-03-31T07:28:43;99397.31;;;11.41;72.97
78990;BME280;68390;52.130;21.218;2023-03-31T07:31:10;99395.19;;;11.43;73.34
78990;BME280;68390;52.130;21.218;2023-03-31T07:33:36;99388.44;;;11.46;73.17
78990;BME280;68390;52.130;21.218;2023-03-31T07:36:05;99387.84;;;11.50;72.59
78990;BME280;68390;52.130;21.218;2023-03-31T07:38:31;99393.19;;;11.58;73.08
78990;BME280;68390;52.130;21.218;2023-03-31T07:40:56;99389.38;;;11.59;73.06
78990;BME280;68390;52.130;21.218;2023-03-31T07:43:22;99385.28;;;11.76;73.17
78990;BME280;68390;52.130;21.218;2023-03-31T07:45:47;99378.50;;;12.20;72.33
78990;BME280;68390;52.130;21.218;2023-03-31T07:48:12;99378.22;;;12.63;72.76
78990;BME280;68390;52.130;21.218;2023-03-31T07:50:38;99382.91;;;12.82;69.45
78990;BME280;68390;52.130;21.218;2023-03-31T07:53:04;99370.22;;;12.94;69.02
78990;BME280;68390;52.130;21.218;2023-03-31T07:55:29;99373.16;;;12.99;69.68
78990;BME280;68390;52.130;21.218;2023-03-31T07:57:55;99376.56;;;12.95;68.39
78990;BME280;68390;52.130;21.218;2023-03-31T08:00:21;99364.91;;;12.99;67.89
78990;BME280;68390;52.130;21.218;2023-03-31T08:02:46;99361.28;;;12.99;67.97
78990;BME280;68390;52.130;21.218;2023-03-31T08:05:14;99366.19;;;13.03;66.55
78990;BME280;68390;52.130;21.218;2023-03-31T08:07:41;99361.97;;;13.07;68.56
78990;BME280;68390;52.130;21.218;2023-03-31T08:10:16;99362.19;;;13.19;66.63
78990;BME280;68390;52.130;21.218;2023-03-31T08:12:42;99366.22;;;13.16;67.25
78990;BME280;68390;52.130;21.218;2023-03-31T08:15:08;99364.09;;;13.18;67.18
78990;BME280;68390;52.130;21.218;2023-03-31T08:17:34;99349.47;;;13.25;65.95
78990;BME280;68390;52.130;21.218;2023-03-31T08:19:59;99346.69;;;13.31;66.28
78990;BME280;68390;52.130;21.218;2023-03-31T08:22:25;99346.03;;;13.29;66.45
78990;BME280;68390;52.130;21.218;2023-03-31T08:24:50;99347.75;;;13.30;65.99
78990;BME280;68390;52.130;21.218;2023-03-31T08:27:16;99346.03;;;13.29;65.83
78990;BME280;68390;52.130;21.218;2023-03-31T08:29:41;99348.00;;;13.29;65.20
78990;BME280;68390;52.130;21.218;2023-03-31T08:32:07;99343.94;;;13.25;65.41
78990;BME280;68390;52.130;21.218;2023-03-31T08:34:33;99342.25;;;13.23;65.54
78990;BME280;68390;52.130;21.218;2023-03-31T08:36:58;99335.03;;;13.22;66.30
78990;BME280;68390;52.130;21.218;2023-03-31T08:39:24;99335.06;;;13.16;65.19
78990;BME280;68390;52.130;21.218;2023-03-31T08:42:06;99339.66;;;13.09;64.39
78990;BME280;68390;52.130;21.218;2023-03-31T08:44:38;99329.94;;;13.06;66.14
78990;BME280;68390;52.130;21.218;2023-03-31T08:47:09;99326.53;;;13.04;64.59
78990;BME280;68390;52.130;21.218;2023-03-31T08:49:48;99325.06;;;12.95;64.65
78990;BME280;68390;52.130;21.218;2023-03-31T08:52:19;99317.63;;;12.89;65.57
78990;BME280;68390;52.130;21.218;2023-03-31T08:54:50;99323.16;;;12.82;66.60
78990;BME280;68390;52.130;21.218;2023-03-31T08:57:24;99317.63;;;12.89;66.08
78990;BME280;68390;52.130;21.218;2023-03-31T08:59:51;99312.53;;;12.99;65.37
78990;BME280;68390;52.130;21.218;2023-03-31T09:02:43;99323.78;;;13.11;67.17
78990;BME280;68390;52.130;21.218;2023-03-31T09:08:18;99323.78;;;13.31;66.65
78990;BME280;68390;52.130;21.218;2023-03-31T09:10:54;99320.41;;;13.35;63.96
78990;BME280;68390;52.130;21.218;2023-03-31T09:16:15;99308.69;;;13.53;65.14
78990;BME280;68390;52.130;21.218;2023-03-31T09:18:45;99321.16;;;13.62;65.43
78990;BME280;68390;52.130;21.218;2023-03-31T09:21:17;99312.88;;;13.75;64.81
78990;BME280;68390;52.130;21.218;2023-03-31T09:23:57;99315.38;;;13.90;63.92
78990;BME280;68390;52.130;21.218;2023-03-31T09:28:58;99302.72;;;14.14;63.10
78990;BME280;68390;52.130;21.218;2023-03-31T09:31:25;99302.47;;;14.22;63.65
78990;BME280;68390;52.130;21.218;2023-03-31T09:33:56;99295.00;;;14.29;61.21
78990;BME280;68390;52.130;21.218;2023-03-31T09:36:26;99287.50;;;14.43;63.25
78990;BME280;68390;52.130;21.218;2023-03-31T09:38:52;99297.00;;;14.53;62.14
78990;BME280;68390;52.130;21.218;2023-03-31T09:41:18;99297.16;;;14.58;62.07
78990;BME280;68390;52.130;21.218;2023-03-31T09:43:45;99293.50;;;14.64;61.37
78990;BME280;68390;52.130;21.218;2023-03-31T09:46:28;99288.56;;;14.73;61.56
78990;BME280;68390;52.130;21.218;2023-03-31T09:48:58;99284.63;;;14.62;60.74
78990;BME280;68390;52.130;21.218;2023-03-31T09:51:29;99292.44;;;14.65;60.50
78990;BME280;68390;52.130;21.218;2023-03-31T09:54:18;99289.00;;;14.70;60.30
78990;BME280;68390;52.130;21.218;2023-03-31T09:56:48;99284.75;;;14.74;59.16
78990;BME280;68390;52.130;21.218;2023-03-31T09:59:22;99283.03;;;14.73;59.26
78990;BME280;68390;52.130;21.218;2023-03-31T10:01:51;99282.63;;;14.69;60.52
78990;BME280;68390;52.130;21.218;2023-03-31T10:04:22;99278.81;;;14.71;60.41
78990;BME280;68390;52.130;21.218;2023-03-31T10:07:10;99277.41;;;14.61;61.02
78990;BME280;68390;52.130;21.218;2023-03-31T10:09:37;99263.56;;;14.61;59.53
78990;BME280;68390;52.130;21.218;2023-03-31T10:12:07;99266.97;;;14.63;61.57
78990;BME280;68390;52.130;21.218;2023-03-31T10:14:41;99268.59;;;14.71;60.53
78990;BME280;68390;52.130;21.218;2023-03-31T10:17:31;99255.16;;;14.75;61.77
78990;BME280;68390;52.130;21.218;2023-03-31T10:20:17;99254.91;;;14.83;60.46
78990;BME280;68390;52.130;21.218;2023-03-31T10:22:44;99259.09;;;14.85;62.20
78990;BME280;68390;52.130;21.218;2023-03-31T10:25:16;99248.47;;;14.89;59.65
78990;BME280;68390;52.130;21.218;2023-03-31T10:27:44;99251.56;;;14.99;59.36
78990;BME280;68390;52.130;21.218;2023-03-31T10:30:16;99248.13;;;15.03;60.54
78990;BME280;68390;52.130;21.218;2023-03-31T10:32:42;99238.50;;;15.06;58.11
78990;BME280;68390;52.130;21.218;2023-03-31T10:35:23;99238.38;;;15.19;59.21
78990;BME280;68390;52.130;21.218;2023-03-31T10:37:50;99240.94;;;15.39;58.42
78990;BME280;68390;52.130;21.218;2023-03-31T10:40:21;99229.66;;;15.59;59.91
78990;BME280;68390;52.130;21.218;2023-03-31T10:43:18;99233.31;;;15.53;57.94
78990;BME280;68390;52.130;21.218;2023-03-31T10:45:48;99232.06;;;15.55;58.05
78990;BME280;68390;52.130;21.218;2023-03-31T10:48:25;99232.47;;;15.52;58.07
78990;BME280;68390;52.130;21.218;2023-03-31T10:50:52;99227.50;;;15.42;56.08
78990;BME280;68390;52.130;21.218;2023-03-31T10:53:18;99223.72;;;15.37;56.75
78990;BME280;68390;52.130;21.218;2023-03-31T11:06:18;99204.38;;;15.55;57.18
78990;BME280;68390;52.130;21.218;2023-03-31T11:08:59;99207.69;;;15.64;55.63
78990;BME280;68390;52.130;21.218;2023-03-31T11:12:11;99211.53;;;15.63;55.92
78990;BME280;68390;52.130;21.218;2023-03-31T11:17:53;99201.13;;;15.76;57.50
78990;BME280;68390;52.130;21.218;2023-03-31T11:20:35;99198.03;;;15.85;56.77
78990;BME280;68390;52.130;21.218;2023-03-31T11:26:10;99192.00;;;15.76;54.74
78990;BME280;68390;52.130;21.218;2023-03-31T11:31:20;99176.53;;;15.68;55.05
78990;BME280;68390;52.130;21.218;2023-03-31T11:39:14;99169.91;;;15.99;55.10
78990;BME280;68390;52.130;21.218;2023-03-31T11:41:56;99172.06;;;15.86;54.72
78990;BME280;68390;52.130;21.218;2023-03-31T11:44:23;99155.50;;;15.67;54.65
78990;BME280;68390;52.130;21.218;2023-03-31T11:46:56;99161.25;;;15.66;56.76
78990;BME280;68390;52.130;21.218;2023-03-31T11:49:29;99158.31;;;15.61;54.81
78990;BME280;68390;52.130;21.218;2023-03-31T11:52:08;99157.06;;;15.75;54.83
78990;BME280;68390;52.130;21.218;2023-03-31T11:54:38;99152.66;;;15.86;55.97
78990;BME280;68390;52.130;21.218;2023-03-31T11:57:16;99157.88;;;15.94;54.61
78990;BME280;68390;52.130;21.218;2023-03-31T11:59:46;99142.47;;;16.39;54.71
78990;BME280;68390;52.130;21.218;2023-03-31T12:02:43;99144.75;;;16.54;55.29
78990;BME280;68390;52.130;21.218;2023-03-31T12:05:11;99145.81;;;16.53;52.79
78990;BME280;68390;52.130;21.218;2023-03-31T12:07:51;99136.91;;;16.51;52.69
78990;BME280;68390;52.130;21.218;2023-03-31T12:10:22;99136.31;;;16.49;53.15
78990;BME280;68390;52.130;21.218;2023-03-31T12:12:55;99129.19;;;16.30;52.55
78990;BME280;68390;52.130;21.218;2023-03-31T12:15:28;99130.94;;;16.12;52.37
78990;BME280;68390;52.130;21.218;2023-03-31T12:18:00;99127.53;;;15.99;54.03
78990;BME280;68390;52.130;21.218;2023-03-31T12:20:31;99120.91;;;16.00;52.40
78990;BME280;68390;52.130;21.218;2023-03-31T12:22:59;99112.25;;;15.96;53.65
78990;BME280;68390;52.130;21.218;2023-03-31T12:25:36;99121.44;;;16.08;55.71
78990;BME280;68390;52.130;21.218;2023-03-31T12:28:05;99107.00;;;16.18;54.72
78990;BME280;68390;52.130;21.218;2023-03-31T12:30:33;99109.66;;;16.25;53.05
78990;BME280;68390;52.130;21.218;2023-03-31T12:44:13;99089.69;;;16.46;50.23
78990;BME280;68390;52.130;21.218;2023-03-31T12:46:58;99083.41;;;16.27;48.46
78990;BME280;68390;52.130;21.218;2023-03-31T12:50:11;99083.66;;;16.26;51.03
78990;BME280;68390;52.130;21.218;2023-03-31T13:06:01;99064.97;;;15.98;50.58
78990;BME280;68390;52.130;21.218;2023-03-31T13:09:05;99057.09;;;15.83;52.10
78990;BME280;68390;52.130;21.218;2023-03-31T13:11:38;99054.44;;;15.76;52.47
78990;BME280;68390;52.130;21.218;2023-03-31T13:16:31;99052.97;;;15.74;51.97
78990;BME280;68390;52.130;21.218;2023-03-31T13:18:58;99038.16;;;15.68;50.69
78990;BME280;68390;52.130;21.218;2023-03-31T13:21:24;99037.06;;;15.69;50.63
78990;BME280;68390;52.130;21.218;2023-03-31T13:23:50;99033.00;;;15.72;51.24
78990;BME280;68390;52.130;21.218;2023-03-31T13:29:22;99026.22;;;15.68;50.53
78990;BME280;68390;52.130;21.218;2023-03-31T13:34:42;99024.72;;;15.54;51.86
78990;BME280;68390;52.130;21.218;2023-03-31T13:37:16;99020.13;;;15.48;53.20
78990;BME280;68390;52.130;21.218;2023-03-31T13:43:06;99024.66;;;15.30;53.02
78990;BME280;68390;52.130;21.218;2023-03-31T13:51:51;99019.34;;;14.99;54.16
78990;BME280;68390;52.130;21.218;2023-03-31T14:00:17;99005.06;;;15.02;54.67
78990;BME280;68390;52.130;21.218;2023-03-31T14:05:36;99003.19;;;15.14;53.29
78990;BME280;68390;52.130;21.218;2023-03-31T14:08:07;99003.19;;;15.14;53.17
78990;BME280;68390;52.130;21.218;2023-03-31T14:10:37;98996.19;;;15.12;51.26
78990;BME280;68390;52.130;21.218;2023-03-31T14:13:15;98990.28;;;15.08;52.61
78990;BME280;68390;52.130;21.218;2023-03-31T14:15:52;98987.53;;;15.08;53.25
78990;BME280;68390;52.130;21.218;2023-03-31T14:18:25;98974.41;;;15.03;53.88
78990;BME280;68390;52.130;21.218;2023-03-31T14:21:10;98976.47;;;15.08;53.70
78990;BME280;68390;52.130;21.218;2023-03-31T14:26:37;98968.47;;;15.30;52.60
78990;BME280;68390;52.130;21.218;2023-03-31T14:32:01;98960.84;;;15.43;53.74
78990;BME280;68390;52.130;21.218;2023-03-31T14:34:51;98963.69;;;15.37;53.44
78990;BME280;68390;52.130;21.218;2023-03-31T14:37:19;98968.09;;;15.26;52.22
78990;BME280;68390;52.130;21.218;2023-03-31T14:39:49;98963.13;;;15.17;53.78
78990;BME280;68390;52.130;21.218;2023-03-31T14:42:19;98967.53;;;15.06;51.71
78990;BME280;68390;52.130;21.218;2023-03-31T14:44:45;98953.44;;;14.96;51.65
78990;BME280;68390;52.130;21.218;2023-03-31T14:47:26;98960.16;;;14.88;53.65
78990;BME280;68390;52.130;21.218;2023-03-31T14:50:02;98953.88;;;14.81;53.62
78990;BME280;68390;52.130;21.218;2023-03-31T14:52:30;98957.81;;;14.74;54.23
78990;BME280;68390;52.130;21.218;2023-03-31T14:54:58;98948.75;;;14.66;52.94
78990;BME280;68390;52.130;21.218;2023-03-31T14:57:32;98952.69;;;14.59;53.77
78990;BME280;68390;52.130;21.218;2023-03-31T14:59:59;98955.75;;;14.51;54.70
78990;BME280;68390;52.130;21.218;2023-03-31T15:02:34;98937.81;;;14.42;55.68
78990;BME280;68390;52.130;21.218;2023-03-31T15:05:02;98938.91;;;14.34;57.83
78990;BME280;68390;52.130;21.218;2023-03-31T15:07:28;98944.22;;;14.17;59.58
78990;BME280;68390;52.130;21.218;2023-03-31T15:09:54;98935.22;;;14.04;62.94
78990;BME280;68390;52.130;21.218;2023-03-31T15:12:20;98927.38;;;13.82;65.98
78990;BME280;68390;52.130;21.218;2023-03-31T15:14:53;98925.34;;;13.71;65.28
78990;BME280;68390;52.130;21.218;2023-03-31T15:17:24;98927.56;;;13.63;66.65
78990;BME280;68390;52.130;21.218;2023-03-31T15:19:53;98931.75;;;13.47;69.19